MST,Max TemperatureF,Mean TemperatureF,Min TemperatureF,Max Dew PointF,MeanDew PointF,Min DewpointF,Max Humidity, Mean Humidity, Min Humidity, Max Sea Level PressureIn, Mean Sea Level PressureIn, Min Sea Level PressureIn, Max VisibilityMiles, Mean VisibilityMiles, Min VisibilityMiles, Max Wind SpeedMPH, Mean Wind SpeedMPH, Max Gust SpeedMPH,PrecipitationIn, CloudCover, Events, WindDirDegrees
2014-1-1,30,24,17,27,22,16,100,87,69,30.28,30.17,29.99,10,9,2,10,3,,0.00,3,,58
2014-1-2,44,28,12,25,18,10,100,70,39,30.16,30.05,29.86,10,10,2,30,7,44,0.01,2,,309
2014-1-3,48,34,21,32,22,16,86,57,39,29.87,29.69,29.53,10,10,3,28,13,44,0.00,4,,275
2014-1-4,28,17,6,18,11,1,93,80,51,30.08,29.97,29.87,10,9,2,21,8,28,0.00,7,,11
2014-1-5,6,-2,-9,3,-5,-15,92,81,66,30.38,30.29,30.09,10,9,2,20,11,31,0.00,4,,15
2014-1-6,39,15,-9,19,-1,-15,100,76,31,30.25,30.13,29.97,10,10,10,18,4,30,0.00,1,,16
2014-1-7,39,27,15,21,15,5,86,62,47,29.97,29.94,29.90,10,10,10,14,3,16,0.00,4,,22
2014-1-8,39,26,14,25,17,10,86,64,42,29.94,29.88,29.78,10,10,10,22,6,32,0.00,2,,313
2014-1-9,42,37,32,25,19,12,70,49,41,29.79,29.66,29.57,10,10,10,25,10,38,0.00,2,,255
2014-1-10,41,36,30,19,15,9,55,46,36,29.83,29.67,29.57,10,10,10,29,16,41,0.01,1,,249
2014-1-11,53,43,33,34,26,19,93,52,35,29.83,29.61,29.38,10,10,3,33,16,48,0.15,3,,249
2014-1-12,37,34,30,27,17,12,86,51,41,29.85,29.66,29.47,10,10,6,28,17,46,0.01,1,,252
2014-1-13,44,34,24,27,20,16,93,50,34,30.19,29.88,29.79,10,9,1,31,18,44,0.03,3,,266
2014-1-14,41,28,15,27,19,12,100,85,53,30.40,30.31,30.19,10,7,1,25,6,33,0.01,4,,333
2014-1-15,48,44,39,27,17,14,61,36,27,30.19,30.11,30.02,10,9,2,31,22,54,0.02,1,,272
2014-1-16,39,29,19,21,17,12,86,62,39,30.35,30.29,30.19,10,10,10,18,7,24,0.00,1,,352
2014-1-17,46,30,15,21,16,12,93,58,29,30.21,30.12,30.07,10,10,10,10,3,17,0.00,0,,347
2014-1-18,46,34,21,25,19,12,74,57,32,30.24,30.16,30.05,10,10,8,22,5,26,0.00,0,,286
2014-1-19,57,50,39,18,13,7,39,25,13,30.10,29.99,29.90,10,10,10,33,17,41,0.00,0,,263
2014-1-20,39,29,19,23,18,14,86,64,42,30.40,30.31,30.14,10,10,9,16,7,28,0.00,1,,133
2014-1-21,51,34,17,19,14,0,86,43,18,30.21,30.18,30.14,10,10,10,20,8,37,0.00,0,,343
2014-1-22,30,24,17,28,21,16,100,82,59,30.34,30.18,30.10,10,8,1,12,5,16,0.00,5,,28
2014-1-23,24,17,10,21,15,9,100,90,74,30.41,30.34,30.26,10,6,0,9,2,,0.00,4,,86
2014-1-24,42,28,14,28,19,10,93,72,49,30.28,30.24,30.20,10,10,10,13,3,,0.00,0,,33
2014-1-25,53,40,28,28,21,18,69,47,28,30.25,30.08,29.96,10,10,10,20,6,28,0.00,0,,284
2014-1-26,42,27,12,28,14,1,93,58,33,30.19,30.04,29.88,10,9,1,28,11,41,0.00,5,,340
2014-1-27,19,12,6,10,5,0,85,70,58,30.19,30.12,30.08,10,10,10,9,5,,0.00,3,,37
2014-1-28,35,18,1,14,5,-4,92,70,33,30.19,30.05,29.89,10,10,7,23,4,39,0.00,1,,11
2014-1-29,44,37,30,30,23,12,93,57,44,29.88,29.64,29.43,10,10,4,25,15,39,0.00,5,,265
2014-1-30,37,22,6,25,11,3,100,79,41,29.79,29.69,29.49,10,7,0,18,10,25,0.00,7,,10
2014-1-31,30,15,0,21,9,-2,100,85,55,29.80,29.72,29.66,10,9,2,16,2,21,0.00,4,,52